sensor_id;sensor_type;location;lat;lon;timestamp;P1;durP1;ratioP1;P2;durP2;ratioP2
41683;SDS011;27369;52.030;4.586;2022-11-15T00:00:15;82.73;;;40.67;;
41683;SDS011;27369;52.030;4.586;2022-11-15T00:02:40;80.20;;;40.08;;
41683;SDS011;27369;52.030;4.586;2022-11-15T00:05:06;77.20;;;40.17;;
41683;SDS011;27369;52.030;4.586;2022-11-15T00:07:31;82.90;;;40.15;;
41683;SDS011;27369;52.030;4.586;2022-11-15T00:09:57;80.93;;;38.42;;
41683;SDS011;27369;52.030;4.586;2022-11-15T00:12:22;83.47;;;40.53;;
41683;SDS011;27369;52.030;4.586;2022-11-15T00:14:47;87.63;;;40.13;;
41683;SDS011;27369;52.030;4.586;2022-11-15T00:17:13;93.93;;;42.00;;
41683;SDS011;27369;52.030;4.586;2022-11-15T00:19:38;86.60;;;42.35;;
41683;SDS011;27369;52.030;4.586;2022-11-15T00:22:03;88.33;;;42.83;;
41683;SDS011;27369;52.030;4.586;2022-11-15T00:24:29;89.93;;;42.50;;
41683;SDS011;27369;52.030;4.586;2022-11-15T00:26:54;85.88;;;42.95;;
41683;SDS011;27369;52.030;4.586;2022-11-15T00:29:20;96.00;;;40.40;;
41683;SDS011;27369;52.030;4.586;2022-11-15T00:31:45;82.20;;;41.63;;
41683;SDS011;27369;52.030;4.586;2022-11-15T00:34:10;88.88;;;40.05;;
41683;SDS011;27369;52.030;4.586;2022-11-15T00:36:36;86.35;;;40.33;;
41683;SDS011;27369;52.030;4.586;2022-11-15T00:39:03;78.20;;;33.22;;
41683;SDS011;27369;52.030;4.586;2022-11-15T00:41:30;92.53;;;40.63;;
41683;SDS011;27369;52.030;4.586;2022-11-15T00:43:56;81.03;;;38.47;;
41683;SDS011;27369;52.030;4.586;2022-11-15T00:46:21;108.53;;;43.50;;
41683;SDS011;27369;52.030;4.586;2022-11-15T00:48:47;109.50;;;42.15;;
41683;SDS011;27369;52.030;4.586;2022-11-15T00:51:12;108.15;;;43.15;;
41683;SDS011;27369;52.030;4.586;2022-11-15T00:53:38;100.88;;;42.78;;
41683;SDS011;27369;52.030;4.586;2022-11-15T00:56:03;111.03;;;42.63;;
41683;SDS011;27369;52.030;4.586;2022-11-15T00:58:29;102.40;;;44.55;;
41683;SDS011;27369;52.030;4.586;2022-11-15T01:00:54;102.43;;;42.58;;
41683;SDS011;27369;52.030;4.586;2022-11-15T01:03:20;95.03;;;43.80;;
41683;SDS011;27369;52.030;4.586;2022-11-15T01:05:45;110.38;;;43.63;;
41683;SDS011;27369;52.030;4.586;2022-11-15T01:08:14;99.63;;;42.92;;
41683;SDS011;27369;52.030;4.586;2022-11-15T01:10:40;99.25;;;42.67;;
41683;SDS011;27369;52.030;4.586;2022-11-15T01:13:06;111.70;;;44.25;;
41683;SDS011;27369;52.030;4.586;2022-11-15T01:15:31;105.35;;;44.13;;
41683;SDS011;27369;52.030;4.586;2022-11-15T01:17:57;102.50;;;48.30;;
41683;SDS011;27369;52.030;4.586;2022-11-15T01:20:22;104.82;;;43.35;;
41683;SDS011;27369;52.030;4.586;2022-11-15T01:22:47;102.97;;;44.38;;
41683;SDS011;27369;52.030;4.586;2022-11-15T01:25:13;110.35;;;44.50;;
41683;SDS011;27369;52.030;4.586;2022-11-15T01:27:38;114.95;;;45.05;;
41683;SDS011;27369;52.030;4.586;2022-11-15T01:30:04;112.28;;;46.60;;
41683;SDS011;27369;52.030;4.586;2022-11-15T01:32:30;117.80;;;47.40;;
41683;SDS011;27369;52.030;4.586;2022-11-15T01:34:55;111.80;;;45.60;;
41683;SDS011;27369;52.030;4.586;2022-11-15T01:37:21;114.28;;;48.53;;
41683;SDS011;27369;52.030;4.586;2022-11-15T01:39:46;116.43;;;47.53;;
41683;SDS011;27369;52.030;4.586;2022-11-15T01:42:12;122.60;;;47.00;;
41683;SDS011;27369;52.030;4.586;2022-11-15T01:47:12;120.78;;;48.00;;
41683;SDS011;27369;52.030;4.586;2022-11-15T01:49:39;114.95;;;47.35;;
41683;SDS011;27369;52.030;4.586;2022-11-15T01:52:12;123.80;;;50.78;;
41683;SDS011;27369;52.030;4.586;2022-11-15T01:54:42;118.40;;;47.70;;
41683;SDS011;27369;52.030;4.586;2022-11-15T01:57:09;103.95;;;47.88;;
41683;SDS011;27369;52.030;4.586;2022-11-15T01:59:37;110.20;;;48.50;;
41683;SDS011;27369;52.030;4.586;2022-11-15T02:02:05;111.50;;;49.00;;
41683;SDS011;27369;52.030;4.586;2022-11-15T02:04:32;103.35;;;47.85;;
41683;SDS011;27369;52.030;4.586;2022-11-15T02:07:01;112.28;;;47.63;;
41683;SDS011;27369;52.030;4.586;2022-11-15T02:09:29;105.68;;;49.08;;
41683;SDS011;27369;52.030;4.586;2022-11-15T02:11:55;123.15;;;48.72;;
41683;SDS011;27369;52.030;4.586;2022-11-15T02:14:21;123.97;;;47.90;;
41683;SDS011;27369;52.030;4.586;2022-11-15T02:16:51;125.75;;;49.45;;
41683;SDS011;27369;52.030;4.586;2022-11-15T02:22:21;113.63;;;48.53;;
41683;SDS011;27369;52.030;4.586;2022-11-15T02:36:00;122.88;;;51.22;;
41683;SDS011;27369;52.030;4.586;2022-11-15T02:38:46;125.35;;;51.60;;
41683;SDS011;27369;52.030;4.586;2022-11-15T02:41:45;118.45;;;50.63;;
41683;SDS011;27369;52.030;4.586;2022-11-15T02:47:15;127.78;;;53.30;;
41683;SDS011;27369;52.030;4.586;2022-11-15T02:49:55;114.13;;;50.65;;
41683;SDS011;27369;52.030;4.586;2022-11-15T02:52:24;130.80;;;53.70;;
41683;SDS011;27369;52.030;4.586;2022-11-15T02:54:53;115.30;;;51.00;;
41683;SDS011;27369;52.030;4.586;2022-11-15T02:57:23;114.57;;;52.17;;
41683;SDS011;27369;52.030;4.586;2022-11-15T03:00:11;125.78;;;53.72;;
41683;SDS011;27369;52.030;4.586;2022-11-15T03:08:22;111.00;;;52.35;;
41683;SDS011;27369;52.030;4.586;2022-11-15T03:13:45;115.47;;;51.05;;
41683;SDS011;27369;52.030;4.586;2022-11-15T03:21:58;108.07;;;53.03;;
41683;SDS011;27369;52.030;4.586;2022-11-15T03:24:26;98.72;;;51.40;;
41683;SDS011;27369;52.030;4.586;2022-11-15T03:26:55;94.55;;;50.22;;
41683;SDS011;27369;52.030;4.586;2022-11-15T03:29:24;97.70;;;50.70;;
41683;SDS011;27369;52.030;4.586;2022-11-15T03:31:58;93.20;;;49.63;;
41683;SDS011;27369;52.030;4.586;2022-11-15T03:37:11;80.75;;;49.25;;
41683;SDS011;27369;52.030;4.586;2022-11-15T03:39:39;82.50;;;46.38;;
41683;SDS011;27369;52.030;4.586;2022-11-15T03:42:22;76.40;;;46.85;;
41683;SDS011;27369;52.030;4.586;2022-11-15T03:50:39;71.15;;;44.83;;
41683;SDS011;27369;52.030;4.586;2022-11-15T03:53:06;67.90;;;45.00;;
41683;SDS011;27369;52.030;4.586;2022-11-15T03:55:32;63.72;;;43.83;;
41683;SDS011;27369;52.030;4.586;2022-11-15T03:57:58;67.65;;;44.55;;
41683;SDS011;27369;52.030;4.586;2022-11-15T04:00:25;63.53;;;42.38;;
41683;SDS011;27369;52.030;4.586;2022-11-15T04:02:51;63.67;;;41.38;;
41683;SDS011;27369;52.030;4.586;2022-11-15T04:05:16;61.42;;;42.60;;
41683;SDS011;27369;52.030;4.586;2022-11-15T04:07:42;57.33;;;41.08;;
41683;SDS011;27369;52.030;4.586;2022-11-15T04:10:08;60.13;;;42.25;;
41683;SDS011;27369;52.030;4.586;2022-11-15T04:12:38;63.38;;;41.33;;
41683;SDS011;27369;52.030;4.586;2022-11-15T04:15:08;58.10;;;38.85;;
41683;SDS011;27369;52.030;4.586;2022-11-15T04:22:46;49.03;;;35.17;;
41683;SDS011;27369;52.030;4.586;2022-11-15T04:25:29;52.95;;;34.80;;
41683;SDS011;27369;52.030;4.586;2022-11-15T04:27:55;44.70;;;33.65;;
41683;SDS011;27369;52.030;4.586;2022-11-15T04:30:20;42.55;;;30.27;;
41683;SDS011;27369;52.030;4.586;2022-11-15T04:32:46;50.22;;;32.50;;
41683;SDS011;27369;52.030;4.586;2022-11-15T04:35:11;36.55;;;30.35;;
41683;SDS011;27369;52.030;4.586;2022-11-15T04:37:36;43.70;;;32.40;;
41683;SDS011;27369;52.030;4.586;2022-11-15T04:40:02;41.67;;;30.85;;
41683;SDS011;27369;52.030;4.586;2022-11-15T04:42:27;43.63;;;31.02;;
41683;SDS011;27369;52.030;4.586;2022-11-15T04:44:53;40.13;;;32.13;;
41683;SDS011;27369;52.030;4.586;2022-11-15T04:47:18;42.53;;;35.67;;
41683;SDS011;27369;52.030;4.586;2022-11-15T04:49:43;47.72;;;42.00;;
41683;SDS011;27369;52.030;4.586;2022-11-15T04:52:09;45.38;;;40.67;;
41683;SDS011;27369;52.030;4.586;2022-11-15T04:54:34;49.42;;;41.10;;
41683;SDS011;27369;52.030;4.586;2022-11-15T04:57:00;45.05;;;40.25;;
41683;SDS011;27369;52.030;4.586;2022-11-15T04:59:25;45.45;;;40.63;;
41683;SDS011;27369;52.030;4.586;2022-11-15T05:01:51;43.75;;;39.20;;
41683;SDS011;27369;52.030;4.586;2022-11-15T05:04:16;43.75;;;39.05;;
41683;SDS011;27369;52.030;4.586;2022-11-15T05:06:44;41.20;;;36.53;;
41683;SDS011;27369;52.030;4.586;2022-11-15T05:09:11;41.63;;;37.30;;
41683;SDS011;27369;52.030;4.586;2022-11-15T05:11:38;42.28;;;37.95;;
41683;SDS011;27369;52.030;4.586;2022-11-15T05:14:03;42.20;;;37.90;;
41683;SDS011;27369;52.030;4.586;2022-11-15T05:16:29;42.70;;;38.60;;
41683;SDS011;27369;52.030;4.586;2022-11-15T05:18:54;39.30;;;34.45;;
41683;SDS011;27369;52.030;4.586;2022-11-15T05:21:20;40.75;;;35.35;;
41683;SDS011;27369;52.030;4.586;2022-11-15T05:23:45;38.45;;;34.42;;
41683;SDS011;27369;52.030;4.586;2022-11-15T05:26:11;38.35;;;34.38;;
41683;SDS011;27369;52.030;4.586;2022-11-15T05:31:03;39.03;;;33.67;;
41683;SDS011;27369;52.030;4.586;2022-11-15T05:33:35;40.17;;;35.97;;
41683;SDS011;27369;52.030;4.586;2022-11-15T05:36:04;39.58;;;35.33;;
41683;SDS011;27369;52.030;4.586;2022-11-15T05:38:32;38.22;;;34.20;;
41683;SDS011;27369;52.030;4.586;2022-11-15T05:40:59;40.70;;;35.35;;
41683;SDS011;27369;52.030;4.586;2022-11-15T05:43:26;34.78;;;31.17;;
41683;SDS011;27369;52.030;4.586;2022-11-15T05:45:52;37.67;;;34.20;;
41683;SDS011;27369;52.030;4.586;2022-11-15T05:48:18;34.92;;;31.75;;
41683;SDS011;27369;52.030;4.586;2022-11-15T05:50:45;33.85;;;30.52;;
41683;SDS011;27369;52.030;4.586;2022-11-15T05:53:12;33.47;;;30.17;;
41683;SDS011;27369;52.030;4.586;2022-11-15T05:55:39;31.60;;;28.80;;
41683;SDS011;27369;52.030;4.586;2022-11-15T05:58:06;29.53;;;26.87;;
41683;SDS011;27369;52.030;4.586;2022-11-15T06:00:31;35.03;;;31.50;;
41683;SDS011;27369;52.030;4.586;2022-11-15T06:02:57;32.40;;;29.23;;
41683;SDS011;27369;52.030;4.586;2022-11-15T06:05:22;33.70;;;30.05;;
41683;SDS011;27369;52.030;4.586;2022-11-15T06:07:48;28.58;;;25.88;;
41683;SDS011;27369;52.030;4.586;2022-11-15T06:10:13;31.15;;;28.58;;
41683;SDS011;27369;52.030;4.586;2022-11-15T06:12:39;32.63;;;28.83;;
41683;SDS011;27369;52.030;4.586;2022-11-15T06:15:04;31.27;;;28.20;;
41683;SDS011;27369;52.030;4.586;2022-11-15T06:17:30;31.40;;;28.58;;
41683;SDS011;27369;52.030;4.586;2022-11-15T06:19:55;28.58;;;26.20;;
41683;SDS011;27369;52.030;4.586;2022-11-15T06:22:21;26.27;;;24.00;;
41683;SDS011;27369;52.030;4.586;2022-11-15T06:24:46;27.27;;;24.95;;
41683;SDS011;27369;52.030;4.586;2022-11-15T06:27:12;25.88;;;23.38;;
41683;SDS011;27369;52.030;4.586;2022-11-15T06:29:37;26.05;;;23.63;;
41683;SDS011;27369;52.030;4.586;2022-11-15T06:32:02;24.40;;;22.23;;
41683;SDS011;27369;52.030;4.586;2022-11-15T06:34:28;26.83;;;24.35;;
41683;SDS011;27369;52.030;4.586;2022-11-15T06:36:53;26.42;;;23.75;;
41683;SDS011;27369;52.030;4.586;2022-11-15T06:39:19;25.08;;;22.63;;
41683;SDS011;27369;52.030;4.586;2022-11-15T06:41:45;24.17;;;22.23;;
41683;SDS011;27369;52.030;4.586;2022-11-15T06:44:10;24.05;;;21.52;;
41683;SDS011;27369;52.030;4.586;2022-11-15T06:46:36;23.42;;;21.55;;
41683;SDS011;27369;52.030;4.586;2022-11-15T06:49:01;24.38;;;22.10;;
41683;SDS011;27369;52.030;4.586;2022-11-15T06:51:27;24.30;;;21.95;;
41683;SDS011;27369;52.030;4.586;2022-11-15T06:53:52;25.05;;;23.10;;
41683;SDS011;27369;52.030;4.586;2022-11-15T06:56:18;23.25;;;21.17;;
41683;SDS011;27369;52.030;4.586;2022-11-15T06:58:43;25.27;;;21.58;;
41683;SDS011;27369;52.030;4.586;2022-11-15T07:01:09;23.52;;;21.17;;
41683;SDS011;27369;52.030;4.586;2022-11-15T07:03:37;23.02;;;21.17;;
41683;SDS011;27369;52.030;4.586;2022-11-15T07:06:04;23.50;;;21.15;;
41683;SDS011;27369;52.030;4.586;2022-11-15T07:08:30;23.75;;;21.25;;
41683;SDS011;27369;52.030;4.586;2022-11-15T07:11:00;15.27;;;13.85;;
41683;SDS011;27369;52.030;4.586;2022-11-15T07:13:27;17.23;;;14.27;;
41683;SDS011;27369;52.030;4.586;2022-11-15T07:15:54;20.20;;;14.80;;
41683;SDS011;27369;52.030;4.586;2022-11-15T07:18:19;15.88;;;14.48;;
41683;SDS011;27369;52.030;4.586;2022-11-15T07:20:45;15.68;;;14.10;;
41683;SDS011;27369;52.030;4.586;2022-11-15T07:23:10;18.65;;;14.23;;
41683;SDS011;27369;52.030;4.586;2022-11-15T07:25:36;19.80;;;15.43;;
41683;SDS011;27369;52.030;4.586;2022-11-15T07:28:01;18.52;;;15.88;;
41683;SDS011;27369;52.030;4.586;2022-11-15T07:30:28;19.02;;;17.00;;
41683;SDS011;27369;52.030;4.586;2022-11-15T07:32:57;17.23;;;15.48;;
41683;SDS011;27369;52.030;4.586;2022-11-15T07:35:24;17.83;;;15.27;;
41683;SDS011;27369;52.030;4.586;2022-11-15T07:37:58;20.27;;;15.93;;
41683;SDS011;27369;52.030;4.586;2022-11-15T07:40:26;15.80;;;14.43;;
41683;SDS011;27369;52.030;4.586;2022-11-15T07:42:58;15.48;;;12.85;;
41683;SDS011;27369;52.030;4.586;2022-11-15T07:45:24;14.15;;;12.60;;
41683;SDS011;27369;52.030;4.586;2022-11-15T07:47:53;13.68;;;12.32;;
41683;SDS011;27369;52.030;4.586;2022-11-15T07:50:21;15.75;;;13.40;;
41683;SDS011;27369;52.030;4.586;2022-11-15T07:52:56;16.13;;;12.27;;
41683;SDS011;27369;52.030;4.586;2022-11-15T07:55:23;13.38;;;11.95;;
41683;SDS011;27369;52.030;4.586;2022-11-15T07:57:50;15.43;;;12.50;;
41683;SDS011;27369;52.030;4.586;2022-11-15T08:00:15;15.80;;;12.20;;
41683;SDS011;27369;52.030;4.586;2022-11-15T08:02:41;17.73;;;12.90;;
41683;SDS011;27369;52.030;4.586;2022-11-15T08:05:07;15.57;;;11.93;;
41683;SDS011;27369;52.030;4.586;2022-11-15T08:07:33;17.77;;;13.75;;
41683;SDS011;27369;52.030;4.586;2022-11-15T08:09:58;20.30;;;13.82;;
41683;SDS011;27369;52.030;4.586;2022-11-15T08:12:26;18.20;;;13.68;;
41683;SDS011;27369;52.030;4.586;2022-11-15T08:14:55;19.17;;;13.48;;
41683;SDS011;27369;52.030;4.586;2022-11-15T08:19:47;17.13;;;13.93;;
41683;SDS011;27369;52.030;4.586;2022-11-15T08:22:14;20.73;;;14.55;;
41683;SDS011;27369;52.030;4.586;2022-11-15T08:24:39;19.85;;;14.85;;
41683;SDS011;27369;52.030;4.586;2022-11-15T08:27:05;23.50;;;15.20;;
41683;SDS011;27369;52.030;4.586;2022-11-15T08:29:39;31.45;;;15.07;;
41683;SDS011;27369;52.030;4.586;2022-11-15T08:32:06;29.85;;;15.30;;
41683;SDS011;27369;52.030;4.586;2022-11-15T08:34:32;18.45;;;16.20;;
41683;SDS011;27369;52.030;4.586;2022-11-15T08:36:57;21.48;;;15.45;;
41683;SDS011;27369;52.030;4.586;2022-11-15T08:39:22;18.85;;;15.57;;
41683;SDS011;27369;52.030;4.586;2022-11-15T08:41:48;27.92;;;16.90;;
41683;SDS011;27369;52.030;4.586;2022-11-15T08:44:13;18.05;;;15.35;;
41683;SDS011;27369;52.030;4.586;2022-11-15T08:46:39;17.38;;;15.60;;
41683;SDS011;27369;52.030;4.586;2022-11-15T08:49:04;17.85;;;15.85;;
41683;SDS011;27369;52.030;4.586;2022-11-15T08:51:29;18.00;;;15.60;;
41683;SDS011;27369;52.030;4.586;2022-11-15T08:53:55;21.23;;;15.75;;
41683;SDS011;27369;52.030;4.586;2022-11-15T08:56:20;17.00;;;15.13;;
41683;SDS011;27369;52.030;4.586;2022-11-15T08:58:45;15.45;;;13.93;;
41683;SDS011;27369;52.030;4.586;2022-11-15T09:01:18;14.88;;;13.27;;
41683;SDS011;27369;52.030;4.586;2022-11-15T09:03:45;18.05;;;13.52;;
41683;SDS011;27369;52.030;4.586;2022-11-15T09:06:11;15.15;;;12.93;;
41683;SDS011;27369;52.030;4.586;2022-11-15T09:08:37;14.95;;;13.45;;
41683;SDS011;27369;52.030;4.586;2022-11-15T09:11:03;14.65;;;13.25;;
41683;SDS011;27369;52.030;4.586;2022-11-15T09:13:30;15.13;;;13.68;;
41683;SDS011;27369;52.030;4.586;2022-11-15T09:15:59;22.35;;;13.23;;
41683;SDS011;27369;52.030;4.586;2022-11-15T09:18:25;15.07;;;13.27;;
41683;SDS011;27369;52.030;4.586;2022-11-15T09:20:51;14.43;;;12.70;;
41683;SDS011;27369;52.030;4.586;2022-11-15T09:23:19;14.52;;;12.23;;
41683;SDS011;27369;52.030;4.586;2022-11-15T09:25:45;14.55;;;11.55;;
41683;SDS011;27369;52.030;4.586;2022-11-15T09:28:10;16.15;;;12.68;;
41683;SDS011;27369;52.030;4.586;2022-11-15T09:30:35;13.80;;;11.05;;
41683;SDS011;27369;52.030;4.586;2022-11-15T09:33:10;12.15;;;11.10;;
41683;SDS011;27369;52.030;4.586;2022-11-15T09:35:37;13.55;;;11.27;;
41683;SDS011;27369;52.030;4.586;2022-11-15T09:38:02;12.52;;;11.50;;
41683;SDS011;27369;52.030;4.586;2022-11-15T09:50:46;17.10;;;9.00;;
41683;SDS011;27369;52.030;4.586;2022-11-15T09:54:01;9.73;;;8.73;;
41683;SDS011;27369;52.030;4.586;2022-11-15T09:56:14;15.82;;;9.75;;
41683;SDS011;27369;52.030;4.586;2022-11-15T10:01:44;12.93;;;9.93;;
41683;SDS011;27369;52.030;4.586;2022-11-15T10:04:29;12.63;;;11.07;;
41683;SDS011;27369;52.030;4.586;2022-11-15T10:09:53;12.50;;;8.98;;
41683;SDS011;27369;52.030;4.586;2022-11-15T10:12:22;10.02;;;9.13;;
41683;SDS011;27369;52.030;4.586;2022-11-15T10:14:49;10.82;;;8.88;;
41683;SDS011;27369;52.030;4.586;2022-11-15T10:22:43;13.10;;;9.20;;
41683;SDS011;27369;52.030;4.586;2022-11-15T10:25:15;11.93;;;9.35;;
41683;SDS011;27369;52.030;4.586;2022-11-15T10:27:55;10.98;;;9.00;;
41683;SDS011;27369;52.030;4.586;2022-11-15T10:30:28;11.23;;;9.45;;
41683;SDS011;27369;52.030;4.586;2022-11-15T10:32:57;11.07;;;8.65;;
41683;SDS011;27369;52.030;4.586;2022-11-15T10:35:27;12.88;;;8.93;;
41683;SDS011;27369;52.030;4.586;2022-11-15T10:38:07;8.68;;;7.25;;
41683;SDS011;27369;52.030;4.586;2022-11-15T10:40:35;8.68;;;7.80;;
41683;SDS011;27369;52.030;4.586;2022-11-15T10:43:13;8.30;;;7.20;;
41683;SDS011;27369;52.030;4.586;2022-11-15T10:45:43;9.95;;;7.72;;
41683;SDS011;27369;52.030;4.586;2022-11-15T10:50:44;8.57;;;5.95;;
41683;SDS011;27369;52.030;4.586;2022-11-15T10:56:11;7.70;;;5.95;;
41683;SDS011;27369;52.030;4.586;2022-11-15T10:58:50;8.38;;;5.90;;
41683;SDS011;27369;52.030;4.586;2022-11-15T11:01:19;9.10;;;5.70;;
41683;SDS011;27369;52.030;4.586;2022-11-15T11:04:07;7.65;;;6.00;;
41683;SDS011;27369;52.030;4.586;2022-11-15T11:06:53;7.30;;;6.60;;
41683;SDS011;27369;52.030;4.586;2022-11-15T11:09:28;7.53;;;6.70;;
41683;SDS011;27369;52.030;4.586;2022-11-15T11:11:57;9.18;;;7.47;;
41683;SDS011;27369;52.030;4.586;2022-11-15T11:14:25;10.40;;;6.28;;
41683;SDS011;27369;52.030;4.586;2022-11-15T11:27:32;9.35;;;6.00;;
41683;SDS011;27369;52.030;4.586;2022-11-15T11:52:18;10.60;;;4.90;;
41683;SDS011;27369;52.030;4.586;2022-11-15T12:00:33;5.50;;;4.68;;
41683;SDS011;27369;52.030;4.586;2022-11-15T12:03:12;11.52;;;4.60;;
41683;SDS011;27369;52.030;4.586;2022-11-15T12:05:57;6.60;;;4.97;;
41683;SDS011;27369;52.030;4.586;2022-11-15T12:11:18;7.60;;;4.97;;
41683;SDS011;27369;52.030;4.586;2022-11-15T12:13:53;5.10;;;4.60;;
41683;SDS011;27369;52.030;4.586;2022-11-15T12:16:26;10.57;;;5.00;;
41683;SDS011;27369;52.030;4.586;2022-11-15T12:18:54;6.65;;;5.40;;
41683;SDS011;27369;52.030;4.586;2022-11-15T12:27:05;11.35;;;5.25;;
41683;SDS011;27369;52.030;4.586;2022-11-15T12:29:37;7.43;;;4.68;;
41683;SDS011;27369;52.030;4.586;2022-11-15T12:32:16;5.72;;;4.63;;
41683;SDS011;27369;52.030;4.586;2022-11-15T12:34:49;8.98;;;5.25;;
41683;SDS011;27369;52.030;4.586;2022-11-15T12:40:25;7.68;;;4.95;;
41683;SDS011;27369;52.030;4.586;2022-11-15T12:43:03;10.27;;;4.90;;
41683;SDS011;27369;52.030;4.586;2022-11-15T12:45:38;10.23;;;5.00;;
41683;SDS011;27369;52.030;4.586;2022-11-15T12:51:00;10.70;;;5.15;;
41683;SDS011;27369;52.030;4.586;2022-11-15T12:53:26;8.27;;;4.95;;
41683;SDS011;27369;52.030;4.586;2022-11-15T13:01:55;13.77;;;4.68;;
41683;SDS011;27369;52.030;4.586;2022-11-15T13:06:44;11.02;;;5.88;;
41683;SDS011;27369;52.030;4.586;2022-11-15T13:12:03;9.73;;;4.88;;
41683;SDS011;27369;52.030;4.586;2022-11-15T13:14:48;8.02;;;4.63;;
41683;SDS011;27369;52.030;4.586;2022-11-15T13:19:43;10.57;;;4.15;;
41683;SDS011;27369;52.030;4.586;2022-11-15T13:22:11;14.88;;;4.90;;
41683;SDS011;27369;52.030;4.586;2022-11-15T13:24:55;8.07;;;4.35;;
41683;SDS011;27369;52.030;4.586;2022-11-15T13:27:21;18.02;;;4.30;;
41683;SDS011;27369;52.030;4.586;2022-11-15T13:29:47;13.63;;;4.80;;
41683;SDS011;27369;52.030;4.586;2022-11-15T13:32:13;20.13;;;5.47;;
41683;SDS011;27369;52.030;4.586;2022-11-15T13:34:43;8.98;;;4.13;;
41683;SDS011;27369;52.030;4.586;2022-11-15T13:37:32;13.73;;;4.90;;
41683;SDS011;27369;52.030;4.586;2022-11-15T13:40:10;15.00;;;4.68;;
41683;SDS011;27369;52.030;4.586;2022-11-15T13:42:55;16.90;;;4.95;;
41683;SDS011;27369;52.030;4.586;2022-11-15T13:47:53;14.17;;;5.10;;
41683;SDS011;27369;52.030;4.586;2022-11-15T13:50:21;5.90;;;4.50;;
41683;SDS011;27369;52.030;4.586;2022-11-15T13:52:52;20.25;;;5.65;;
41683;SDS011;27369;52.030;4.586;2022-11-15T13:55:19;6.15;;;4.53;;
41683;SDS011;27369;52.030;4.586;2022-11-15T13:57:52;15.68;;;5.47;;
41683;SDS011;27369;52.030;4.586;2022-11-15T14:00:27;10.95;;;5.40;;
41683;SDS011;27369;52.030;4.586;2022-11-15T14:03:05;21.52;;;5.38;;
41683;SDS011;27369;52.030;4.586;2022-11-15T14:05:39;10.88;;;4.85;;
41683;SDS011;27369;52.030;4.586;2022-11-15T14:10:45;20.73;;;5.57;;
41683;SDS011;27369;52.030;4.586;2022-11-15T14:13:25;16.27;;;5.20;;
41683;SDS011;27369;52.030;4.586;2022-11-15T14:15:53;14.60;;;4.65;;
41683;SDS011;27369;52.030;4.586;2022-11-15T14:21:06;11.02;;;4.70;;
41683;SDS011;27369;52.030;4.586;2022-11-15T14:23:33;7.07;;;4.25;;
41683;SDS011;27369;52.030;4.586;2022-11-15T14:25:58;4.70;;;4.25;;
41683;SDS011;27369;52.030;4.586;2022-11-15T14:30:50;8.07;;;4.47;;
41683;SDS011;27369;52.030;4.586;2022-11-15T14:33:22;5.32;;;4.30;;
41683;SDS011;27369;52.030;4.586;2022-11-15T14:35:47;5.05;;;4.50;;
41683;SDS011;27369;52.030;4.586;2022-11-15T14:38:14;5.78;;;4.78;;
41683;SDS011;27369;52.030;4.586;2022-11-15T14:40:39;7.65;;;5.05;;
41683;SDS011;27369;52.030;4.586;2022-11-15T14:43:07;5.70;;;5.00;;
41683;SDS011;27369;52.030;4.586;2022-11-15T14:45:36;8.32;;;4.63;;
41683;SDS011;27369;52.030;4.586;2022-11-15T14:48:02;9.23;;;4.47;;
41683;SDS011;27369;52.030;4.586;2022-11-15T14:50:28;14.30;;;3.92;;
41683;SDS011;27369;52.030;4.586;2022-11-15T14:52:53;13.43;;;4.00;;
41683;SDS011;27369;52.030;4.586;2022-11-15T14:55:29;9.70;;;4.55;;
41683;SDS011;27369;52.030;4.586;2022-11-15T14:57:57;9.25;;;4.57;;
41683;SDS011;27369;52.030;4.586;2022-11-15T15:00:23;10.10;;;4.00;;
41683;SDS011;27369;52.030;4.586;2022-11-15T15:02:50;20.50;;;4.88;;
41683;SDS011;27369;52.030;4.586;2022-11-15T15:05:22;9.20;;;3.90;;
41683;SDS011;27369;52.030;4.586;2022-11-15T15:07:49;14.70;;;4.53;;
41683;SDS011;27369;52.030;4.586;2022-11-15T15:10:17;18.92;;;5.18;;
41683;SDS011;27369;52.030;4.586;2022-11-15T15:12:43;10.45;;;3.95;;
41683;SDS011;27369;52.030;4.586;2022-11-15T15:15:13;18.15;;;4.60;;
41683;SDS011;27369;52.030;4.586;2022-11-15T15:17:41;12.93;;;4.20;;
41683;SDS011;27369;52.030;4.586;2022-11-15T15:20:07;23.67;;;4.57;;
41683;SDS011;27369;52.030;4.586;2022-11-15T15:22:32;10.32;;;4.13;;
41683;SDS011;27369;52.030;4.586;2022-11-15T15:24:58;6.45;;;3.80;;
41683;SDS011;27369;52.030;4.586;2022-11-15T15:27:23;21.67;;;4.55;;
41683;SDS011;27369;52.030;4.586;2022-11-15T15:29:48;19.00;;;4.10;;
41683;SDS011;27369;52.030;4.586;2022-11-15T15:32:14;10.38;;;4.13;;
41683;SDS011;27369;52.030;4.586;2022-11-15T15:34:39;10.60;;;5.10;;
41683;SDS011;27369;52.030;4.586;2022-11-15T15:39:48;9.57;;;3.83;;
41683;SDS011;27369;52.030;4.586;2022-11-15T15:42:14;9.45;;;3.60;;
41683;SDS011;27369;52.030;4.586;2022-11-15T15:44:39;7.30;;;3.97;;
41683;SDS011;27369;52.030;4.586;2022-11-15T15:47:12;6.25;;;4.50;;
41683;SDS011;27369;52.030;4.586;2022-11-15T15:49:39;9.93;;;4.15;;
41683;SDS011;27369;52.030;4.586;2022-11-15T15:52:04;8.50;;;4.65;;
41683;SDS011;27369;52.030;4.586;2022-11-15T15:54:30;6.10;;;4.10;;
41683;SDS011;27369;52.030;4.586;2022-11-15T15:56:55;6.90;;;4.00;;
41683;SDS011;27369;52.030;4.586;2022-11-15T15:59:20;7.00;;;4.00;;
41683;SDS011;27369;52.030;4.586;2022-11-15T16:01:46;4.65;;;4.25;;
41683;SDS011;27369;52.030;4.586;2022-11-15T16:04:11;10.05;;;4.20;;
41683;SDS011;27369;52.030;4.586;2022-11-15T16:06:37;10.90;;;4.13;;
41683;SDS011;27369;52.030;4.586;2022-11-15T16:09:05;8.15;;;3.92;;
41683;SDS011;27369;52.030;4.586;2022-11-15T16:11:31;5.20;;;3.25;;
41683;SDS011;27369;52.030;4.586;2022-11-15T16:13:56;7.75;;;4.15;;
41683;SDS011;27369;52.030;4.586;2022-11-15T16:16:22;6.65;;;4.32;;
41683;SDS011;27369;52.030;4.586;2022-11-15T16:18:47;6.28;;;4.07;;
41683;SDS011;27369;52.030;4.586;2022-11-15T16:21:13;5.25;;;4.28;;
41683;SDS011;27369;52.030;4.586;2022-11-15T16:23:38;5.60;;;4.20;;
41683;SDS011;27369;52.030;4.586;2022-11-15T16:26:09;5.57;;;3.75;;
41683;SDS011;27369;52.030;4.586;2022-11-15T16:28:45;6.20;;;4.43;;
41683;SDS011;27369;52.030;4.586;2022-11-15T16:31:10;6.68;;;4.32;;
41683;SDS011;27369;52.030;4.586;2022-11-15T16:36:03;4.20;;;3.83;;
41683;SDS011;27369;52.030;4.586;2022-11-15T16:38:29;6.13;;;4.75;;
41683;SDS011;27369;52.030;4.586;2022-11-15T16:40:55;5.50;;;4.07;;
41683;SDS011;27369;52.030;4.586;2022-11-15T16:43:21;8.60;;;4.32;;
41683;SDS011;27369;52.030;4.586;2022-11-15T16:45:46;6.95;;;4.45;;
41683;SDS011;27369;52.030;4.586;2022-11-15T16:50:55;7.60;;;4.15;;
41683;SDS011;27369;52.030;4.586;2022-11-15T16:53:24;7.55;;;4.75;;
41683;SDS011;27369;52.030;4.586;2022-11-15T16:55:50;10.60;;;4.70;;
41683;SDS011;27369;52.030;4.586;2022-11-15T16:58:15;7.35;;;4.20;;
41683;SDS011;27369;52.030;4.586;2022-11-15T17:00:41;7.32;;;4.38;;
41683;SDS011;27369;52.030;4.586;2022-11-15T17:03:06;8.70;;;4.00;;
41683;SDS011;27369;52.030;4.586;2022-11-15T17:05:32;6.43;;;4.22;;
41683;SDS011;27369;52.030;4.586;2022-11-15T17:07:57;7.20;;;5.07;;
41683;SDS011;27369;52.030;4.586;2022-11-15T17:10:23;5.25;;;4.80;;
41683;SDS011;27369;52.030;4.586;2022-11-15T17:12:50;5.28;;;4.78;;
41683;SDS011;27369;52.030;4.586;2022-11-15T17:15:16;5.70;;;4.60;;
41683;SDS011;27369;52.030;4.586;2022-11-15T17:17:42;7.93;;;4.70;;